createdAt,value
2019-01-10T00:01:08.961Z,7.37
2019-01-10T00:05:54.062Z,5.93
2019-01-10T00:10:51.055Z,9.17
2019-01-10T00:16:29.965Z,18.97
2019-01-10T00:27:05.775Z,8.30
2019-01-10T00:32:18.995Z,8.33
2019-01-10T00:37:27.686Z,7.23
2019-01-10T00:42:48.802Z,8.93
2019-01-10T00:47:25.451Z,10.40
2019-01-10T00:52:32.785Z,8.70
2019-01-10T00:57:39.667Z,8.30
2019-01-10T01:02:30.691Z,10.87
2019-01-10T01:07:26.823Z,9.77
2019-01-10T05:08:07.688Z,9.63
2019-01-10T05:23:51.069Z,7.40
2019-01-10T05:29:04.790Z,6.93
2019-01-10T06:19:31.038Z,7.47
2019-01-10T14:59:16.498Z,3.57
2019-01-10T15:04:03.348Z,3.00
2019-01-10T15:08:48.482Z,3.10
2019-01-10T15:13:35.631Z,2.97
2019-01-10T15:18:20.615Z,2.53
2019-01-10T15:23:05.802Z,3.00
2019-01-10T15:27:53.346Z,2.60
2019-01-10T15:32:49.938Z,3.37
2019-01-10T15:37:35.206Z,3.17
2019-01-10T15:42:20.399Z,2.50
2019-01-10T15:47:06.786Z,1.90
2019-01-10T15:51:55.053Z,2.33
2019-01-10T15:56:39.792Z,2.83
2019-01-10T16:01:24.906Z,2.47
2019-01-10T16:06:09.831Z,2.47
2019-01-10T16:10:54.354Z,2.50
2019-01-10T16:15:39.912Z,2.33
2019-01-10T16:20:24.654Z,3.10
2019-01-10T16:25:09.937Z,2.70
2019-01-10T16:29:54.506Z,2.80
2019-01-10T17:31:06.505Z,3.27
2019-01-10T17:35:54.792Z,2.97
2019-01-10T23:17:52.441Z,2.10
2019-01-10T23:22:37.327Z,2.47
2019-01-10T23:27:22.219Z,3.03
2019-01-10T23:32:16.541Z,4.40
2019-01-10T23:37:01.439Z,4.23
2019-01-10T23:41:46.187Z,4.57
2019-01-10T23:46:31.229Z,5.03
2019-01-10T23:51:16.017Z,4.10
2019-01-10T23:56:00.912Z,3.67
